sensor_id;sensor_type;location;lat;lon;timestamp;P1;durP1;ratioP1;P2;durP2;ratioP2
14474;SDS011;7323;50.848;4.334;2023-04-08T00:01:10;15.13;;;8.80;;
14474;SDS011;7323;50.848;4.334;2023-04-08T00:03:35;19.50;;;8.83;;
14474;SDS011;7323;50.848;4.334;2023-04-08T00:06:01;17.73;;;9.57;;
14474;SDS011;7323;50.848;4.334;2023-04-08T00:08:28;22.30;;;8.90;;
14474;SDS011;7323;50.848;4.334;2023-04-08T00:10:55;20.23;;;9.27;;
14474;SDS011;7323;50.848;4.334;2023-04-08T00:13:20;19.43;;;9.17;;
14474;SDS011;7323;50.848;4.334;2023-04-08T00:15:46;16.40;;;9.13;;
14474;SDS011;7323;50.848;4.334;2023-04-08T00:18:14;21.37;;;9.00;;
14474;SDS011;7323;50.848;4.334;2023-04-08T00:20:41;20.53;;;9.63;;
14474;SDS011;7323;50.848;4.334;2023-04-08T00:23:07;21.93;;;9.60;;
14474;SDS011;7323;50.848;4.334;2023-04-08T00:25:35;16.93;;;8.77;;
14474;SDS011;7323;50.848;4.334;2023-04-08T00:28:01;20.97;;;12.53;;
14474;SDS011;7323;50.848;4.334;2023-04-08T00:30:27;17.20;;;8.73;;
14474;SDS011;7323;50.848;4.334;2023-04-08T00:32:57;22.10;;;10.67;;
14474;SDS011;7323;50.848;4.334;2023-04-08T00:35:23;19.80;;;9.77;;
14474;SDS011;7323;50.848;4.334;2023-04-08T00:37:49;19.07;;;9.33;;
14474;SDS011;7323;50.848;4.334;2023-04-08T00:40:16;20.60;;;9.30;;
14474;SDS011;7323;50.848;4.334;2023-04-08T00:42:42;17.10;;;9.23;;
14474;SDS011;7323;50.848;4.334;2023-04-08T00:45:08;18.43;;;8.90;;
14474;SDS011;7323;50.848;4.334;2023-04-08T00:47:34;20.23;;;9.60;;
14474;SDS011;7323;50.848;4.334;2023-04-08T00:50:01;16.00;;;9.30;;
14474;SDS011;7323;50.848;4.334;2023-04-08T00:52:28;20.70;;;9.80;;
14474;SDS011;7323;50.848;4.334;2023-04-08T00:54:54;22.30;;;10.80;;
14474;SDS011;7323;50.848;4.334;2023-04-08T00:57:20;17.57;;;9.03;;
14474;SDS011;7323;50.848;4.334;2023-04-08T00:59:47;17.97;;;9.50;;
14474;SDS011;7323;50.848;4.334;2023-04-08T01:04:59;23.43;;;9.23;;
14474;SDS011;7323;50.848;4.334;2023-04-08T01:10:04;19.50;;;9.87;;
14474;SDS011;7323;50.848;4.334;2023-04-08T01:12:55;17.10;;;9.03;;
14474;SDS011;7323;50.848;4.334;2023-04-08T01:15:23;19.50;;;9.83;;
14474;SDS011;7323;50.848;4.334;2023-04-08T01:17:52;17.90;;;8.83;;
14474;SDS011;7323;50.848;4.334;2023-04-08T01:20:20;19.27;;;9.50;;
14474;SDS011;7323;50.848;4.334;2023-04-08T01:25:35;19.37;;;10.07;;
14474;SDS011;7323;50.848;4.334;2023-04-08T01:28:14;22.53;;;9.67;;
14474;SDS011;7323;50.848;4.334;2023-04-08T01:30:42;17.20;;;9.30;;
14474;SDS011;7323;50.848;4.334;2023-04-08T01:33:11;18.47;;;9.63;;
14474;SDS011;7323;50.848;4.334;2023-04-08T01:35:39;18.63;;;10.37;;
14474;SDS011;7323;50.848;4.334;2023-04-08T01:40:49;19.97;;;10.10;;
14474;SDS011;7323;50.848;4.334;2023-04-08T01:43:18;21.83;;;10.07;;
14474;SDS011;7323;50.848;4.334;2023-04-08T01:45:45;21.77;;;10.87;;
14474;SDS011;7323;50.848;4.334;2023-04-08T01:48:12;17.03;;;10.03;;
14474;SDS011;7323;50.848;4.334;2023-04-08T01:50:42;19.53;;;9.87;;
14474;SDS011;7323;50.848;4.334;2023-04-08T01:53:09;24.97;;;11.17;;
14474;SDS011;7323;50.848;4.334;2023-04-08T01:55:37;20.70;;;10.17;;
14474;SDS011;7323;50.848;4.334;2023-04-08T01:58:15;19.07;;;11.10;;
14474;SDS011;7323;50.848;4.334;2023-04-08T02:03:40;23.87;;;11.33;;
14474;SDS011;7323;50.848;4.334;2023-04-08T02:06:08;24.83;;;11.60;;
14474;SDS011;7323;50.848;4.334;2023-04-08T02:08:34;21.30;;;10.37;;
14474;SDS011;7323;50.848;4.334;2023-04-08T02:11:02;19.50;;;10.17;;
14474;SDS011;7323;50.848;4.334;2023-04-08T02:13:29;19.63;;;9.90;;
14474;SDS011;7323;50.848;4.334;2023-04-08T02:15:57;21.40;;;10.60;;
14474;SDS011;7323;50.848;4.334;2023-04-08T02:18:32;19.23;;;10.73;;
14474;SDS011;7323;50.848;4.334;2023-04-08T02:21:10;20.97;;;10.50;;
14474;SDS011;7323;50.848;4.334;2023-04-08T02:23:40;23.67;;;10.93;;
14474;SDS011;7323;50.848;4.334;2023-04-08T02:26:15;21.27;;;11.10;;
14474;SDS011;7323;50.848;4.334;2023-04-08T02:28:43;18.70;;;11.83;;
14474;SDS011;7323;50.848;4.334;2023-04-08T02:31:10;21.23;;;10.73;;
14474;SDS011;7323;50.848;4.334;2023-04-08T02:33:40;20.83;;;12.20;;
14474;SDS011;7323;50.848;4.334;2023-04-08T02:36:07;21.03;;;11.60;;
14474;SDS011;7323;50.848;4.334;2023-04-08T02:38:35;20.23;;;10.97;;
14474;SDS011;7323;50.848;4.334;2023-04-08T02:41:00;28.30;;;12.17;;
14474;SDS011;7323;50.848;4.334;2023-04-08T02:43:26;21.17;;;11.40;;
14474;SDS011;7323;50.848;4.334;2023-04-08T02:45:56;21.73;;;11.83;;
14474;SDS011;7323;50.848;4.334;2023-04-08T02:48:27;19.37;;;11.47;;
14474;SDS011;7323;50.848;4.334;2023-04-08T02:50:55;20.43;;;11.30;;
14474;SDS011;7323;50.848;4.334;2023-04-08T02:53:22;21.93;;;11.40;;
14474;SDS011;7323;50.848;4.334;2023-04-08T02:55:49;17.93;;;12.17;;
14474;SDS011;7323;50.848;4.334;2023-04-08T02:58:15;19.33;;;12.47;;
14474;SDS011;7323;50.848;4.334;2023-04-08T03:00:40;18.17;;;11.60;;
14474;SDS011;7323;50.848;4.334;2023-04-08T03:03:06;23.37;;;12.70;;
14474;SDS011;7323;50.848;4.334;2023-04-08T03:08:39;18.50;;;12.57;;
14474;SDS011;7323;50.848;4.334;2023-04-08T03:11:07;21.60;;;13.00;;
14474;SDS011;7323;50.848;4.334;2023-04-08T03:22:05;19.83;;;12.37;;
14474;SDS011;7323;50.848;4.334;2023-04-08T03:24:38;18.33;;;12.47;;
14474;SDS011;7323;50.848;4.334;2023-04-08T03:27:04;21.00;;;12.57;;
14474;SDS011;7323;50.848;4.334;2023-04-08T03:29:30;19.70;;;13.13;;
14474;SDS011;7323;50.848;4.334;2023-04-08T03:31:56;22.73;;;14.43;;
14474;SDS011;7323;50.848;4.334;2023-04-08T03:34:22;25.03;;;14.17;;
14474;SDS011;7323;50.848;4.334;2023-04-08T03:36:47;21.10;;;14.47;;
14474;SDS011;7323;50.848;4.334;2023-04-08T03:39:13;23.87;;;14.87;;
14474;SDS011;7323;50.848;4.334;2023-04-08T03:41:38;26.17;;;15.87;;
14474;SDS011;7323;50.848;4.334;2023-04-08T03:44:04;22.80;;;16.63;;
14474;SDS011;7323;50.848;4.334;2023-04-08T03:46:30;23.87;;;15.00;;
14474;SDS011;7323;50.848;4.334;2023-04-08T03:48:55;31.50;;;16.07;;
14474;SDS011;7323;50.848;4.334;2023-04-08T03:51:21;22.27;;;15.70;;
14474;SDS011;7323;50.848;4.334;2023-04-08T03:53:48;25.50;;;16.07;;
14474;SDS011;7323;50.848;4.334;2023-04-08T03:56:18;29.47;;;16.50;;
14474;SDS011;7323;50.848;4.334;2023-04-08T03:58:44;26.87;;;16.53;;
14474;SDS011;7323;50.848;4.334;2023-04-08T04:01:10;29.03;;;18.70;;
14474;SDS011;7323;50.848;4.334;2023-04-08T04:06:22;24.63;;;16.97;;
14474;SDS011;7323;50.848;4.334;2023-04-08T04:08:51;25.83;;;17.60;;
14474;SDS011;7323;50.848;4.334;2023-04-08T04:11:19;28.60;;;18.27;;
14474;SDS011;7323;50.848;4.334;2023-04-08T04:13:46;29.53;;;17.50;;
14474;SDS011;7323;50.848;4.334;2023-04-08T04:16:11;28.63;;;18.13;;
14474;SDS011;7323;50.848;4.334;2023-04-08T04:18:38;28.73;;;18.93;;
14474;SDS011;7323;50.848;4.334;2023-04-08T04:21:04;30.20;;;19.13;;
14474;SDS011;7323;50.848;4.334;2023-04-08T04:23:31;34.10;;;18.70;;
14474;SDS011;7323;50.848;4.334;2023-04-08T04:25:57;30.50;;;17.80;;
14474;SDS011;7323;50.848;4.334;2023-04-08T04:28:23;32.03;;;18.33;;
14474;SDS011;7323;50.848;4.334;2023-04-08T04:30:49;30.53;;;19.03;;
14474;SDS011;7323;50.848;4.334;2023-04-08T04:33:16;28.33;;;18.80;;
14474;SDS011;7323;50.848;4.334;2023-04-08T04:35:41;29.97;;;18.43;;
14474;SDS011;7323;50.848;4.334;2023-04-08T04:38:08;27.30;;;18.70;;
14474;SDS011;7323;50.848;4.334;2023-04-08T04:40:36;28.53;;;18.83;;
14474;SDS011;7323;50.848;4.334;2023-04-08T04:43:03;32.10;;;19.03;;
14474;SDS011;7323;50.848;4.334;2023-04-08T04:45:31;32.37;;;18.97;;
14474;SDS011;7323;50.848;4.334;2023-04-08T04:53:36;32.50;;;19.23;;
14474;SDS011;7323;50.848;4.334;2023-04-08T04:56:04;31.90;;;18.07;;
14474;SDS011;7323;50.848;4.334;2023-04-08T04:58:31;29.03;;;18.77;;
14474;SDS011;7323;50.848;4.334;2023-04-08T05:00:57;36.50;;;18.97;;
14474;SDS011;7323;50.848;4.334;2023-04-08T05:03:25;33.83;;;19.47;;
14474;SDS011;7323;50.848;4.334;2023-04-08T05:05:52;32.07;;;19.73;;
14474;SDS011;7323;50.848;4.334;2023-04-08T05:08:18;35.70;;;19.73;;
14474;SDS011;7323;50.848;4.334;2023-04-08T05:10:44;34.47;;;17.97;;
14474;SDS011;7323;50.848;4.334;2023-04-08T05:13:10;31.63;;;19.90;;
14474;SDS011;7323;50.848;4.334;2023-04-08T05:15:36;31.23;;;17.50;;
14474;SDS011;7323;50.848;4.334;2023-04-08T05:18:01;31.97;;;19.93;;
14474;SDS011;7323;50.848;4.334;2023-04-08T05:20:27;32.73;;;19.40;;
14474;SDS011;7323;50.848;4.334;2023-04-08T05:22:52;30.77;;;19.23;;
14474;SDS011;7323;50.848;4.334;2023-04-08T05:25:18;28.77;;;18.77;;
14474;SDS011;7323;50.848;4.334;2023-04-08T05:27:44;31.57;;;18.87;;
14474;SDS011;7323;50.848;4.334;2023-04-08T05:30:11;34.10;;;20.67;;
14474;SDS011;7323;50.848;4.334;2023-04-08T05:32:36;31.77;;;20.70;;
14474;SDS011;7323;50.848;4.334;2023-04-08T05:35:02;29.03;;;19.00;;
14474;SDS011;7323;50.848;4.334;2023-04-08T05:37:28;29.30;;;17.47;;
14474;SDS011;7323;50.848;4.334;2023-04-08T05:39:54;33.70;;;18.33;;
14474;SDS011;7323;50.848;4.334;2023-04-08T05:42:22;37.30;;;19.60;;
14474;SDS011;7323;50.848;4.334;2023-04-08T05:44:47;29.90;;;19.33;;
14474;SDS011;7323;50.848;4.334;2023-04-08T05:47:13;33.50;;;19.60;;
14474;SDS011;7323;50.848;4.334;2023-04-08T05:49:39;31.40;;;19.30;;
14474;SDS011;7323;50.848;4.334;2023-04-08T05:52:05;33.40;;;19.13;;
14474;SDS011;7323;50.848;4.334;2023-04-08T05:54:31;33.87;;;20.30;;
14474;SDS011;7323;50.848;4.334;2023-04-08T05:56:58;32.53;;;18.80;;
14474;SDS011;7323;50.848;4.334;2023-04-08T05:59:26;31.10;;;19.33;;
14474;SDS011;7323;50.848;4.334;2023-04-08T06:01:52;31.67;;;20.13;;
14474;SDS011;7323;50.848;4.334;2023-04-08T06:04:19;28.57;;;18.93;;
14474;SDS011;7323;50.848;4.334;2023-04-08T06:06:45;31.23;;;20.03;;
14474;SDS011;7323;50.848;4.334;2023-04-08T06:09:10;33.10;;;18.93;;
14474;SDS011;7323;50.848;4.334;2023-04-08T06:11:36;34.17;;;20.60;;
14474;SDS011;7323;50.848;4.334;2023-04-08T06:14:08;28.87;;;18.00;;
14474;SDS011;7323;50.848;4.334;2023-04-08T06:16:34;28.93;;;19.43;;
14474;SDS011;7323;50.848;4.334;2023-04-08T06:18:59;33.93;;;20.17;;
14474;SDS011;7323;50.848;4.334;2023-04-08T06:21:25;30.17;;;18.13;;
14474;SDS011;7323;50.848;4.334;2023-04-08T06:23:51;29.07;;;19.37;;
14474;SDS011;7323;50.848;4.334;2023-04-08T06:26:19;32.80;;;19.60;;
14474;SDS011;7323;50.848;4.334;2023-04-08T06:28:48;35.53;;;19.77;;
14474;SDS011;7323;50.848;4.334;2023-04-08T06:31:18;28.53;;;20.17;;
14474;SDS011;7323;50.848;4.334;2023-04-08T06:33:46;31.27;;;19.47;;
14474;SDS011;7323;50.848;4.334;2023-04-08T06:36:16;30.03;;;19.07;;
14474;SDS011;7323;50.848;4.334;2023-04-08T06:38:41;28.03;;;18.33;;
14474;SDS011;7323;50.848;4.334;2023-04-08T06:41:10;32.27;;;18.63;;
14474;SDS011;7323;50.848;4.334;2023-04-08T06:43:38;30.60;;;18.43;;
14474;SDS011;7323;50.848;4.334;2023-04-08T06:46:06;27.90;;;17.90;;
14474;SDS011;7323;50.848;4.334;2023-04-08T06:48:31;29.23;;;18.07;;
14474;SDS011;7323;50.848;4.334;2023-04-08T06:50:58;29.03;;;18.77;;
14474;SDS011;7323;50.848;4.334;2023-04-08T06:53:25;25.20;;;17.87;;
14474;SDS011;7323;50.848;4.334;2023-04-08T06:55:53;28.00;;;17.90;;
14474;SDS011;7323;50.848;4.334;2023-04-08T06:58:30;26.83;;;16.63;;
14474;SDS011;7323;50.848;4.334;2023-04-08T07:01:11;27.57;;;18.23;;
14474;SDS011;7323;50.848;4.334;2023-04-08T07:03:39;18.60;;;13.63;;
14474;SDS011;7323;50.848;4.334;2023-04-08T07:06:04;26.57;;;16.67;;
14474;SDS011;7323;50.848;4.334;2023-04-08T07:08:31;19.60;;;13.80;;
14474;SDS011;7323;50.848;4.334;2023-04-08T07:11:01;20.90;;;16.10;;
14474;SDS011;7323;50.848;4.334;2023-04-08T07:13:39;19.13;;;13.93;;
14474;SDS011;7323;50.848;4.334;2023-04-08T07:16:21;23.23;;;13.07;;
14474;SDS011;7323;50.848;4.334;2023-04-08T07:18:52;25.00;;;15.50;;
14474;SDS011;7323;50.848;4.334;2023-04-08T07:21:18;19.27;;;12.83;;
14474;SDS011;7323;50.848;4.334;2023-04-08T07:23:43;19.93;;;14.43;;
14474;SDS011;7323;50.848;4.334;2023-04-08T07:26:11;20.93;;;13.80;;
14474;SDS011;7323;50.848;4.334;2023-04-08T07:28:36;20.27;;;12.30;;
14474;SDS011;7323;50.848;4.334;2023-04-08T07:31:10;19.23;;;12.40;;
14474;SDS011;7323;50.848;4.334;2023-04-08T07:33:48;21.57;;;13.17;;
14474;SDS011;7323;50.848;4.334;2023-04-08T07:36:17;16.60;;;11.53;;
14474;SDS011;7323;50.848;4.334;2023-04-08T07:38:44;19.40;;;13.10;;
14474;SDS011;7323;50.848;4.334;2023-04-08T07:41:12;20.93;;;12.60;;
14474;SDS011;7323;50.848;4.334;2023-04-08T07:43:40;18.63;;;12.77;;
14474;SDS011;7323;50.848;4.334;2023-04-08T07:46:09;17.47;;;10.23;;
14474;SDS011;7323;50.848;4.334;2023-04-08T07:48:34;16.53;;;12.20;;
14474;SDS011;7323;50.848;4.334;2023-04-08T07:51:04;16.40;;;11.67;;
14474;SDS011;7323;50.848;4.334;2023-04-08T07:53:32;15.10;;;12.33;;
14474;SDS011;7323;50.848;4.334;2023-04-08T07:55:59;17.93;;;11.13;;
14474;SDS011;7323;50.848;4.334;2023-04-08T07:58:25;18.53;;;12.80;;
14474;SDS011;7323;50.848;4.334;2023-04-08T08:00:52;18.27;;;11.97;;
14474;SDS011;7323;50.848;4.334;2023-04-08T08:03:19;17.43;;;12.90;;
14474;SDS011;7323;50.848;4.334;2023-04-08T08:05:48;20.67;;;14.30;;
14474;SDS011;7323;50.848;4.334;2023-04-08T08:08:13;22.73;;;14.07;;
14474;SDS011;7323;50.848;4.334;2023-04-08T08:10:40;17.90;;;13.07;;
14474;SDS011;7323;50.848;4.334;2023-04-08T08:13:08;20.10;;;13.10;;
14474;SDS011;7323;50.848;4.334;2023-04-08T08:15:41;21.07;;;13.53;;
14474;SDS011;7323;50.848;4.334;2023-04-08T08:18:08;16.10;;;13.20;;
14474;SDS011;7323;50.848;4.334;2023-04-08T08:20:35;20.97;;;14.20;;
14474;SDS011;7323;50.848;4.334;2023-04-08T08:25:31;17.83;;;13.10;;
14474;SDS011;7323;50.848;4.334;2023-04-08T08:27:59;22.20;;;14.73;;
14474;SDS011;7323;50.848;4.334;2023-04-08T08:30:26;20.73;;;13.93;;
14474;SDS011;7323;50.848;4.334;2023-04-08T08:32:52;13.67;;;12.20;;
14474;SDS011;7323;50.848;4.334;2023-04-08T08:35:23;14.97;;;11.67;;
14474;SDS011;7323;50.848;4.334;2023-04-08T08:37:53;16.63;;;12.43;;
14474;SDS011;7323;50.848;4.334;2023-04-08T08:40:22;16.30;;;12.93;;
14474;SDS011;7323;50.848;4.334;2023-04-08T08:42:51;19.80;;;14.57;;
14474;SDS011;7323;50.848;4.334;2023-04-08T08:45:18;19.17;;;13.60;;
14474;SDS011;7323;50.848;4.334;2023-04-08T08:47:45;22.23;;;14.60;;
14474;SDS011;7323;50.848;4.334;2023-04-08T08:50:14;19.00;;;14.57;;
14474;SDS011;7323;50.848;4.334;2023-04-08T08:52:49;21.33;;;15.17;;
14474;SDS011;7323;50.848;4.334;2023-04-08T08:55:17;19.27;;;14.57;;
14474;SDS011;7323;50.848;4.334;2023-04-08T08:57:50;17.20;;;12.37;;
14474;SDS011;7323;50.848;4.334;2023-04-08T09:00:16;21.03;;;14.93;;
14474;SDS011;7323;50.848;4.334;2023-04-08T09:05:57;23.00;;;16.57;;
14474;SDS011;7323;50.848;4.334;2023-04-08T09:08:33;20.07;;;15.67;;
14474;SDS011;7323;50.848;4.334;2023-04-08T09:11:11;19.90;;;15.30;;
14474;SDS011;7323;50.848;4.334;2023-04-08T09:13:41;20.53;;;14.47;;
14474;SDS011;7323;50.848;4.334;2023-04-08T09:16:09;17.40;;;13.87;;
14474;SDS011;7323;50.848;4.334;2023-04-08T09:18:37;23.10;;;14.80;;
14474;SDS011;7323;50.848;4.334;2023-04-08T09:21:04;20.13;;;15.17;;
14474;SDS011;7323;50.848;4.334;2023-04-08T09:29:04;17.50;;;13.10;;
14474;SDS011;7323;50.848;4.334;2023-04-08T09:31:37;20.67;;;14.33;;
14474;SDS011;7323;50.848;4.334;2023-04-08T09:34:10;21.43;;;15.50;;
14474;SDS011;7323;50.848;4.334;2023-04-08T09:36:39;19.93;;;15.40;;
14474;SDS011;7323;50.848;4.334;2023-04-08T09:39:07;20.97;;;14.07;;
14474;SDS011;7323;50.848;4.334;2023-04-08T09:41:33;15.37;;;13.07;;
14474;SDS011;7323;50.848;4.334;2023-04-08T09:44:02;18.43;;;13.83;;
14474;SDS011;7323;50.848;4.334;2023-04-08T09:49:26;24.37;;;15.67;;
14474;SDS011;7323;50.848;4.334;2023-04-08T09:52:10;20.07;;;14.67;;
14474;SDS011;7323;50.848;4.334;2023-04-08T09:57:36;18.13;;;13.73;;
14474;SDS011;7323;50.848;4.334;2023-04-08T10:00:15;19.77;;;15.53;;
14474;SDS011;7323;50.848;4.334;2023-04-08T10:02:48;22.33;;;16.27;;
14474;SDS011;7323;50.848;4.334;2023-04-08T10:05:16;21.87;;;15.57;;
14474;SDS011;7323;50.848;4.334;2023-04-08T10:07:43;22.33;;;16.03;;
14474;SDS011;7323;50.848;4.334;2023-04-08T10:10:10;21.53;;;15.90;;
14474;SDS011;7323;50.848;4.334;2023-04-08T10:12:37;19.13;;;15.83;;
14474;SDS011;7323;50.848;4.334;2023-04-08T10:17:52;20.43;;;16.53;;
14474;SDS011;7323;50.848;4.334;2023-04-08T10:23:01;20.97;;;14.23;;
14474;SDS011;7323;50.848;4.334;2023-04-08T10:25:35;20.03;;;14.93;;
14474;SDS011;7323;50.848;4.334;2023-04-08T10:33:15;23.17;;;16.83;;
14474;SDS011;7323;50.848;4.334;2023-04-08T10:38:37;18.80;;;14.83;;
14474;SDS011;7323;50.848;4.334;2023-04-08T10:41:07;16.47;;;12.40;;
14474;SDS011;7323;50.848;4.334;2023-04-08T10:43:45;20.53;;;15.30;;
14474;SDS011;7323;50.848;4.334;2023-04-08T10:46:11;21.13;;;14.77;;
14474;SDS011;7323;50.848;4.334;2023-04-08T10:48:37;21.13;;;16.93;;
14474;SDS011;7323;50.848;4.334;2023-04-08T10:51:03;20.10;;;15.97;;
14474;SDS011;7323;50.848;4.334;2023-04-08T10:53:37;21.00;;;15.07;;
14474;SDS011;7323;50.848;4.334;2023-04-08T10:56:08;18.43;;;15.00;;
14474;SDS011;7323;50.848;4.334;2023-04-08T10:59:00;18.03;;;14.20;;
14474;SDS011;7323;50.848;4.334;2023-04-08T11:01:27;16.90;;;13.50;;
14474;SDS011;7323;50.848;4.334;2023-04-08T11:04:09;15.43;;;13.83;;
14474;SDS011;7323;50.848;4.334;2023-04-08T11:06:49;19.03;;;15.33;;
14474;SDS011;7323;50.848;4.334;2023-04-08T11:09:18;19.47;;;14.70;;
14474;SDS011;7323;50.848;4.334;2023-04-08T11:11:44;21.20;;;15.43;;
14474;SDS011;7323;50.848;4.334;2023-04-08T11:14:17;17.20;;;14.57;;
14474;SDS011;7323;50.848;4.334;2023-04-08T11:16:45;19.37;;;13.97;;
14474;SDS011;7323;50.848;4.334;2023-04-08T11:19:12;19.03;;;15.33;;
14474;SDS011;7323;50.848;4.334;2023-04-08T11:21:49;20.83;;;16.73;;
14474;SDS011;7323;50.848;4.334;2023-04-08T11:24:16;22.77;;;17.67;;
14474;SDS011;7323;50.848;4.334;2023-04-08T11:26:42;18.47;;;15.50;;
14474;SDS011;7323;50.848;4.334;2023-04-08T11:29:10;18.20;;;14.57;;
14474;SDS011;7323;50.848;4.334;2023-04-08T11:31:38;17.73;;;15.03;;
14474;SDS011;7323;50.848;4.334;2023-04-08T11:34:06;19.30;;;14.90;;
14474;SDS011;7323;50.848;4.334;2023-04-08T11:36:33;16.23;;;14.00;;
14474;SDS011;7323;50.848;4.334;2023-04-08T11:39:06;18.70;;;15.73;;
14474;SDS011;7323;50.848;4.334;2023-04-08T11:41:36;14.97;;;12.50;;
14474;SDS011;7323;50.848;4.334;2023-04-08T11:44:05;16.30;;;12.37;;
14474;SDS011;7323;50.848;4.334;2023-04-08T11:46:33;16.83;;;13.67;;
14474;SDS011;7323;50.848;4.334;2023-04-08T11:49:07;15.03;;;13.27;;
14474;SDS011;7323;50.848;4.334;2023-04-08T11:51:52;21.77;;;15.97;;
14474;SDS011;7323;50.848;4.334;2023-04-08T11:54:30;21.77;;;16.50;;
14474;SDS011;7323;50.848;4.334;2023-04-08T11:56:59;17.97;;;15.27;;
14474;SDS011;7323;50.848;4.334;2023-04-08T11:59:30;21.17;;;16.07;;
14474;SDS011;7323;50.848;4.334;2023-04-08T12:01:56;18.47;;;15.40;;
14474;SDS011;7323;50.848;4.334;2023-04-08T12:04:31;19.13;;;15.93;;
14474;SDS011;7323;50.848;4.334;2023-04-08T12:07:17;17.90;;;15.83;;
14474;SDS011;7323;50.848;4.334;2023-04-08T12:09:47;19.50;;;16.50;;
14474;SDS011;7323;50.848;4.334;2023-04-08T12:12:14;21.23;;;16.77;;
14474;SDS011;7323;50.848;4.334;2023-04-08T12:14:44;22.83;;;16.97;;
14474;SDS011;7323;50.848;4.334;2023-04-08T12:17:10;19.03;;;15.73;;
14474;SDS011;7323;50.848;4.334;2023-04-08T12:19:38;18.97;;;15.07;;
14474;SDS011;7323;50.848;4.334;2023-04-08T12:22:06;18.40;;;15.77;;
14474;SDS011;7323;50.848;4.334;2023-04-08T12:24:45;18.93;;;15.40;;
14474;SDS011;7323;50.848;4.334;2023-04-08T12:27:10;18.13;;;12.57;;
14474;SDS011;7323;50.848;4.334;2023-04-08T12:29:37;16.90;;;13.90;;
14474;SDS011;7323;50.848;4.334;2023-04-08T12:32:04;18.37;;;12.40;;
14474;SDS011;7323;50.848;4.334;2023-04-08T12:34:30;17.43;;;13.73;;
14474;SDS011;7323;50.848;4.334;2023-04-08T12:36:57;18.17;;;14.20;;
14474;SDS011;7323;50.848;4.334;2023-04-08T12:39:24;18.63;;;14.27;;
14474;SDS011;7323;50.848;4.334;2023-04-08T12:41:50;16.87;;;13.10;;
14474;SDS011;7323;50.848;4.334;2023-04-08T12:44:20;15.67;;;13.40;;
14474;SDS011;7323;50.848;4.334;2023-04-08T12:46:45;20.10;;;14.30;;
14474;SDS011;7323;50.848;4.334;2023-04-08T12:49:13;15.73;;;13.10;;
14474;SDS011;7323;50.848;4.334;2023-04-08T12:51:39;17.40;;;14.80;;
14474;SDS011;7323;50.848;4.334;2023-04-08T12:54:04;16.77;;;14.07;;
14474;SDS011;7323;50.848;4.334;2023-04-08T12:56:37;14.97;;;13.37;;
14474;SDS011;7323;50.848;4.334;2023-04-08T12:59:06;15.90;;;13.37;;
14474;SDS011;7323;50.848;4.334;2023-04-08T13:01:31;16.43;;;12.30;;
14474;SDS011;7323;50.848;4.334;2023-04-08T13:03:58;15.27;;;12.70;;
14474;SDS011;7323;50.848;4.334;2023-04-08T13:06:24;15.93;;;12.60;;
14474;SDS011;7323;50.848;4.334;2023-04-08T13:08:51;13.53;;;11.63;;
14474;SDS011;7323;50.848;4.334;2023-04-08T13:11:19;17.53;;;12.83;;
14474;SDS011;7323;50.848;4.334;2023-04-08T13:13:47;15.37;;;12.83;;
14474;SDS011;7323;50.848;4.334;2023-04-08T13:16:13;13.47;;;12.07;;
14474;SDS011;7323;50.848;4.334;2023-04-08T13:18:40;15.67;;;12.27;;
14474;SDS011;7323;50.848;4.334;2023-04-08T13:21:07;15.63;;;12.73;;
14474;SDS011;7323;50.848;4.334;2023-04-08T13:23:33;15.77;;;12.53;;
14474;SDS011;7323;50.848;4.334;2023-04-08T13:25:59;15.20;;;12.50;;
14474;SDS011;7323;50.848;4.334;2023-04-08T13:28:25;12.57;;;11.00;;
14474;SDS011;7323;50.848;4.334;2023-04-08T13:30:51;13.77;;;10.70;;
14474;SDS011;7323;50.848;4.334;2023-04-08T13:33:20;13.67;;;10.93;;
14474;SDS011;7323;50.848;4.334;2023-04-08T13:35:47;12.90;;;11.43;;
14474;SDS011;7323;50.848;4.334;2023-04-08T13:38:13;16.17;;;10.97;;
14474;SDS011;7323;50.848;4.334;2023-04-08T13:40:39;13.87;;;10.87;;
14474;SDS011;7323;50.848;4.334;2023-04-08T13:43:05;13.87;;;11.43;;
14474;SDS011;7323;50.848;4.334;2023-04-08T13:45:31;13.83;;;11.57;;
14474;SDS011;7323;50.848;4.334;2023-04-08T13:47:56;14.70;;;11.63;;
14474;SDS011;7323;50.848;4.334;2023-04-08T13:50:23;14.13;;;11.33;;
14474;SDS011;7323;50.848;4.334;2023-04-08T13:52:49;14.63;;;11.40;;
14474;SDS011;7323;50.848;4.334;2023-04-08T13:55:15;13.17;;;11.40;;
14474;SDS011;7323;50.848;4.334;2023-04-08T13:57:40;16.03;;;12.97;;
14474;SDS011;7323;50.848;4.334;2023-04-08T14:00:06;15.20;;;12.43;;
14474;SDS011;7323;50.848;4.334;2023-04-08T14:02:32;13.50;;;12.07;;
14474;SDS011;7323;50.848;4.334;2023-04-08T14:04:58;14.37;;;12.27;;
14474;SDS011;7323;50.848;4.334;2023-04-08T14:07:24;15.90;;;12.50;;
14474;SDS011;7323;50.848;4.334;2023-04-08T14:09:49;15.03;;;12.30;;
14474;SDS011;7323;50.848;4.334;2023-04-08T14:12:15;14.77;;;12.63;;
14474;SDS011;7323;50.848;4.334;2023-04-08T14:14:41;14.27;;;12.03;;
14474;SDS011;7323;50.848;4.334;2023-04-08T14:17:07;12.43;;;11.07;;
14474;SDS011;7323;50.848;4.334;2023-04-08T14:19:37;15.37;;;10.77;;
14474;SDS011;7323;50.848;4.334;2023-04-08T14:22:03;15.13;;;12.30;;
14474;SDS011;7323;50.848;4.334;2023-04-08T14:24:29;15.70;;;13.63;;
14474;SDS011;7323;50.848;4.334;2023-04-08T14:26:54;17.73;;;12.80;;
14474;SDS011;7323;50.848;4.334;2023-04-08T14:29:21;17.27;;;13.30;;
14474;SDS011;7323;50.848;4.334;2023-04-08T14:32:07;16.67;;;12.87;;
14474;SDS011;7323;50.848;4.334;2023-04-08T14:34:33;13.67;;;11.70;;
14474;SDS011;7323;50.848;4.334;2023-04-08T14:37:02;14.27;;;12.80;;
14474;SDS011;7323;50.848;4.334;2023-04-08T14:39:35;15.00;;;12.13;;
14474;SDS011;7323;50.848;4.334;2023-04-08T14:42:01;16.13;;;13.73;;
14474;SDS011;7323;50.848;4.334;2023-04-08T14:44:28;18.23;;;13.80;;
14474;SDS011;7323;50.848;4.334;2023-04-08T14:47:00;18.67;;;15.37;;
14474;SDS011;7323;50.848;4.334;2023-04-08T14:49:28;17.63;;;14.60;;
14474;SDS011;7323;50.848;4.334;2023-04-08T14:52:01;18.17;;;15.17;;
14474;SDS011;7323;50.848;4.334;2023-04-08T14:54:29;16.67;;;13.37;;
14474;SDS011;7323;50.848;4.334;2023-04-08T14:57:22;19.23;;;15.40;;
14474;SDS011;7323;50.848;4.334;2023-04-08T14:59:56;17.40;;;15.30;;
14474;SDS011;7323;50.848;4.334;2023-04-08T15:02:34;16.33;;;14.13;;
14474;SDS011;7323;50.848;4.334;2023-04-08T15:05:26;20.93;;;16.00;;
14474;SDS011;7323;50.848;4.334;2023-04-08T15:08:20;19.97;;;15.87;;
14474;SDS011;7323;50.848;4.334;2023-04-08T15:14:08;20.40;;;16.53;;
14474;SDS011;7323;50.848;4.334;2023-04-08T15:16:36;20.97;;;15.90;;
14474;SDS011;7323;50.848;4.334;2023-04-08T15:19:09;19.37;;;15.40;;
14474;SDS011;7323;50.848;4.334;2023-04-08T15:22:01;19.80;;;17.03;;
14474;SDS011;7323;50.848;4.334;2023-04-08T15:24:47;22.33;;;16.83;;
14474;SDS011;7323;50.848;4.334;2023-04-08T15:27:19;19.83;;;17.73;;
14474;SDS011;7323;50.848;4.334;2023-04-08T15:29:54;19.93;;;16.07;;
14474;SDS011;7323;50.848;4.334;2023-04-08T15:33:03;19.23;;;15.90;;
14474;SDS011;7323;50.848;4.334;2023-04-08T15:35:53;21.13;;;16.80;;
14474;SDS011;7323;50.848;4.334;2023-04-08T15:38:46;19.20;;;17.20;;
14474;SDS011;7323;50.848;4.334;2023-04-08T15:42:32;19.07;;;16.60;;
14474;SDS011;7323;50.848;4.334;2023-04-08T15:45:57;22.13;;;17.30;;
14474;SDS011;7323;50.848;4.334;2023-04-08T15:48:38;20.20;;;16.80;;
14474;SDS011;7323;50.848;4.334;2023-04-08T15:51:43;20.83;;;17.30;;
14474;SDS011;7323;50.848;4.334;2023-04-08T15:54:36;21.50;;;15.87;;
14474;SDS011;7323;50.848;4.334;2023-04-08T15:57:02;20.33;;;17.20;;